createdAt,value
2022-12-01T00:01:23.531Z,5.80
2022-12-01T00:03:51.630Z,5.80
2022-12-01T00:06:21.396Z,5.80
2022-12-01T00:09:09.397Z,5.80
2022-12-01T00:11:39.766Z,5.70
2022-12-01T00:14:08.325Z,5.80
2022-12-01T00:16:36.499Z,5.80
2022-12-01T00:19:04.852Z,5.80
2022-12-01T00:21:32.947Z,5.70
2022-12-01T00:24:01.157Z,5.70
2022-12-01T00:26:29.397Z,5.80
2022-12-01T00:29:00.343Z,5.80
2022-12-01T00:31:28.784Z,5.70
2022-12-01T00:33:56.975Z,5.70
2022-12-01T00:36:25.376Z,5.70
2022-12-01T00:38:54.103Z,5.70
2022-12-01T00:41:23.275Z,5.70
2022-12-01T00:43:51.496Z,5.70
2022-12-01T00:46:21.203Z,5.70
2022-12-01T00:48:50.294Z,5.70
2022-12-01T00:51:18.340Z,5.70
2022-12-01T00:53:47.074Z,5.70
2022-12-01T00:56:15.351Z,5.70
2022-12-01T00:58:43.434Z,5.70
2022-12-01T01:01:11.735Z,5.70
2022-12-01T01:03:41.247Z,5.70
2022-12-01T01:06:11.876Z,5.70
2022-12-01T01:08:40.819Z,5.60
2022-12-01T01:11:09.983Z,5.60
2022-12-01T01:13:39.034Z,5.60
2022-12-01T01:16:11.277Z,5.60
2022-12-01T01:18:40.831Z,5.60
2022-12-01T01:21:11.908Z,5.60
2022-12-01T01:23:40.079Z,5.60
2022-12-01T01:26:12.081Z,5.60
2022-12-01T01:28:41.660Z,5.60
2022-12-01T01:31:11.674Z,5.60
2022-12-01T01:33:41.570Z,5.60
2022-12-01T01:36:10.048Z,5.60
2022-12-01T01:38:38.347Z,5.60
2022-12-01T01:41:07.979Z,5.60
2022-12-01T01:43:47.835Z,5.70
2022-12-01T01:46:18.076Z,5.60
2022-12-01T01:48:51.243Z,5.60
2022-12-01T01:51:25.212Z,5.60
2022-12-01T01:53:57.570Z,5.60
2022-12-01T01:56:25.834Z,5.60
2022-12-01T01:58:54.353Z,5.60
2022-12-01T02:01:22.644Z,5.60
2022-12-01T02:03:54.320Z,5.60
2022-12-01T02:06:23.627Z,5.60
2022-12-01T02:08:51.858Z,5.60
2022-12-01T02:11:48.507Z,5.60
2022-12-01T02:14:44.187Z,5.70
2022-12-01T02:17:23.592Z,5.60
2022-12-01T02:20:24.342Z,5.60
2022-12-01T02:23:13.694Z,5.60
2022-12-01T02:25:51.604Z,5.60
2022-12-01T02:28:45.802Z,5.60
2022-12-01T02:31:17.598Z,5.60
2022-12-01T02:33:55.132Z,5.60
2022-12-01T02:36:33.494Z,5.60
2022-12-01T02:39:08.259Z,5.60
2022-12-01T02:41:40.960Z,5.60
2022-12-01T02:44:18.046Z,5.60
2022-12-01T02:46:52.121Z,5.60
2022-12-01T02:49:24.280Z,5.60
2022-12-01T02:51:53.989Z,5.60
2022-12-01T02:54:23.257Z,5.60
2022-12-01T02:56:54.373Z,5.60
2022-12-01T02:59:22.403Z,5.60
2022-12-01T03:02:05.408Z,5.60
2022-12-01T03:04:51.067Z,5.60
2022-12-01T03:07:37.611Z,5.60
2022-12-01T03:10:14.672Z,5.60
2022-12-01T03:12:54.197Z,5.60
2022-12-01T03:15:33.306Z,5.60
2022-12-01T03:18:08.820Z,5.60
2022-12-01T03:20:41.858Z,5.60
2022-12-01T03:23:13.576Z,5.60
2022-12-01T03:25:45.198Z,5.60
2022-12-01T03:28:23.557Z,5.60
2022-12-01T03:30:56.064Z,5.60
2022-12-01T03:33:30.262Z,5.60
2022-12-01T03:36:02.482Z,5.60
2022-12-01T03:38:32.009Z,5.60
2022-12-01T03:41:02.746Z,5.60
2022-12-01T03:43:35.493Z,5.60
2022-12-01T03:46:08.686Z,5.60
2022-12-01T03:48:40.405Z,5.60
2022-12-01T03:51:17.008Z,5.60
2022-12-01T03:53:54.028Z,5.60
2022-12-01T03:56:27.282Z,5.50
2022-12-01T03:58:58.957Z,5.50
2022-12-01T04:01:32.638Z,5.50
2022-12-01T04:04:06.916Z,5.50
2022-12-01T04:06:35.757Z,5.60
2022-12-01T04:09:03.830Z,5.60
2022-12-01T04:11:49.329Z,5.50
2022-12-01T04:14:17.391Z,5.50
2022-12-01T04:16:45.470Z,5.50
2022-12-01T04:19:15.124Z,5.50
2022-12-01T04:21:43.171Z,5.50
2022-12-01T04:24:12.328Z,5.50
2022-12-01T04:26:42.007Z,5.50
2022-12-01T04:29:12.031Z,5.50
2022-12-01T04:31:40.489Z,5.50
2022-12-01T04:34:08.848Z,5.50
2022-12-01T04:36:38.389Z,5.50
2022-12-01T04:39:06.908Z,5.50
2022-12-01T04:41:35.180Z,5.60
2022-12-01T04:44:03.385Z,5.60
2022-12-01T04:46:32.178Z,5.60
2022-12-01T04:49:00.368Z,5.50
2022-12-01T04:51:28.402Z,5.60
2022-12-01T04:53:57.856Z,5.50
2022-12-01T04:56:26.072Z,5.60
2022-12-01T04:58:54.246Z,5.60
2022-12-01T05:01:22.380Z,5.50
2022-12-01T05:03:50.548Z,5.50
2022-12-01T05:06:20.152Z,5.50
2022-12-01T05:08:49.195Z,5.50
2022-12-01T05:11:19.493Z,5.50
2022-12-01T05:13:48.689Z,5.60
2022-12-01T05:16:18.891Z,5.50
2022-12-01T05:18:49.471Z,5.50
2022-12-01T05:21:17.559Z,5.50
2022-12-01T05:23:45.739Z,5.50
2022-12-01T05:26:13.842Z,5.50
2022-12-01T05:28:43.258Z,5.50
2022-12-01T05:31:11.568Z,5.50
2022-12-01T05:33:39.996Z,5.50
2022-12-01T05:36:08.635Z,5.50
2022-12-01T05:38:36.690Z,5.50
2022-12-01T05:41:04.809Z,5.50
2022-12-01T05:43:32.868Z,5.50
2022-12-01T05:46:02.729Z,5.50
2022-12-01T05:48:30.842Z,5.50
2022-12-01T05:50:58.867Z,5.60
2022-12-01T05:53:26.909Z,5.50
2022-12-01T05:55:55.406Z,5.50
2022-12-01T05:58:23.491Z,5.50
2022-12-01T06:00:51.507Z,5.50
2022-12-01T06:03:20.980Z,5.60
2022-12-01T06:05:49.171Z,5.50
2022-12-01T06:08:17.210Z,5.50
2022-12-01T06:10:45.648Z,5.50
2022-12-01T06:13:13.681Z,5.50
2022-12-01T06:15:41.771Z,5.50
2022-12-01T06:18:10.206Z,5.50
2022-12-01T06:20:39.691Z,5.50
2022-12-01T06:23:07.726Z,5.50
2022-12-01T06:25:35.803Z,5.50
2022-12-01T06:28:04.273Z,5.50
2022-12-01T06:30:32.264Z,5.50
2022-12-01T06:33:00.313Z,5.50
2022-12-01T06:39:42.044Z,5.50
2022-12-01T06:42:10.370Z,5.50
2022-12-01T06:44:38.708Z,5.40
2022-12-01T06:47:08.120Z,5.50
2022-12-01T06:49:36.192Z,5.50
2022-12-01T06:52:04.371Z,5.40
2022-12-01T06:54:32.859Z,5.50
2022-12-01T06:57:02.235Z,5.40
2022-12-01T06:59:30.491Z,5.40
2022-12-01T07:01:58.960Z,5.40
2022-12-01T07:04:27.128Z,5.40
2022-12-01T07:06:55.180Z,5.40
2022-12-01T07:09:23.172Z,5.40
2022-12-01T07:11:51.244Z,5.50
2022-12-01T07:14:23.735Z,5.40
2022-12-01T07:16:52.241Z,5.40
2022-12-01T07:19:20.390Z,5.50
2022-12-01T07:21:48.601Z,5.40
2022-12-01T07:24:17.040Z,5.40
2022-12-01T07:26:45.140Z,5.40
2022-12-01T07:29:13.282Z,5.40
2022-12-01T07:31:42.765Z,5.40
2022-12-01T07:34:12.695Z,5.40
2022-12-01T07:36:40.805Z,5.40
2022-12-01T07:39:09.679Z,5.40
2022-12-01T07:41:37.769Z,5.40
2022-12-01T07:44:06.025Z,5.40
2022-12-01T07:46:34.145Z,5.40
2022-12-01T07:49:06.942Z,5.40
2022-12-01T07:51:35.548Z,5.40
2022-12-01T07:54:05.125Z,5.40
2022-12-01T07:56:33.507Z,5.40
2022-12-01T07:59:01.521Z,5.40
2022-12-01T08:01:29.709Z,5.40
2022-12-01T08:03:59.602Z,5.40
2022-12-01T08:06:29.050Z,5.40
2022-12-01T08:08:57.594Z,5.40
2022-12-01T08:11:29.448Z,5.40
2022-12-01T08:13:57.654Z,5.30
2022-12-01T08:16:26.245Z,5.30
2022-12-01T08:18:54.950Z,5.30
2022-12-01T08:21:24.822Z,5.30
2022-12-01T08:23:56.439Z,5.30
2022-12-01T08:26:25.920Z,5.30
2022-12-01T08:28:54.311Z,5.30
2022-12-01T08:31:24.956Z,5.30
2022-12-01T08:33:54.207Z,5.30
2022-12-01T08:36:23.262Z,5.30
2022-12-01T08:38:53.483Z,5.30
2022-12-01T08:41:24.109Z,5.30
2022-12-01T08:44:00.479Z,5.30
2022-12-01T08:46:30.402Z,5.30
2022-12-01T08:48:58.572Z,5.20
2022-12-01T08:51:27.335Z,5.20
2022-12-01T08:53:57.018Z,5.30
2022-12-01T08:56:29.392Z,5.20
2022-12-01T08:58:58.003Z,5.20
2022-12-01T09:01:26.701Z,5.30
2022-12-01T09:04:05.639Z,5.20
2022-12-01T09:06:35.541Z,5.30
2022-12-01T09:09:03.756Z,5.20
2022-12-01T09:11:33.247Z,5.20
2022-12-01T09:14:01.316Z,5.20
2022-12-01T09:16:29.473Z,5.20
2022-12-01T09:18:57.655Z,5.20
2022-12-01T09:21:30.371Z,5.20
2022-12-01T09:23:58.979Z,5.20
2022-12-01T09:26:27.306Z,5.20
2022-12-01T09:28:58.811Z,5.20
2022-12-01T09:31:27.172Z,5.20
2022-12-01T09:33:57.329Z,5.20
2022-12-01T09:36:25.701Z,5.20
2022-12-01T09:38:54.009Z,5.20
2022-12-01T09:41:25.652Z,5.20
2022-12-01T09:43:59.954Z,5.30
2022-12-01T09:46:31.670Z,5.20
2022-12-01T09:49:02.637Z,5.20
2022-12-01T09:51:34.888Z,5.30
2022-12-01T09:54:03.925Z,5.20
2022-12-01T09:56:36.386Z,5.30
2022-12-01T09:59:08.833Z,5.30
2022-12-01T10:01:40.115Z,5.30
2022-12-01T10:04:14.820Z,5.30
2022-12-01T10:06:50.035Z,5.30
2022-12-01T10:09:25.417Z,5.30
2022-12-01T10:11:56.003Z,5.30
2022-12-01T10:14:25.504Z,5.30
2022-12-01T10:17:04.625Z,5.30
2022-12-01T10:19:39.769Z,5.30
2022-12-01T10:22:25.033Z,5.30
2022-12-01T10:24:57.073Z,5.30
2022-12-01T10:27:40.313Z,5.30
2022-12-01T10:30:15.444Z,5.20
2022-12-01T10:32:52.315Z,5.30
2022-12-01T10:35:23.345Z,5.20
2022-12-01T10:37:55.600Z,5.20
2022-12-01T10:40:24.256Z,5.20
2022-12-01T10:42:52.797Z,5.20
2022-12-01T10:45:24.634Z,5.20
2022-12-01T10:48:16.909Z,5.20
2022-12-01T10:50:46.632Z,5.20
2022-12-01T10:53:29.841Z,5.20
2022-12-01T10:56:05.871Z,5.20
2022-12-01T10:58:41.068Z,5.20
2022-12-01T11:01:19.039Z,5.30
2022-12-01T11:03:53.072Z,5.20
2022-12-01T11:06:27.663Z,5.20
2022-12-01T11:08:58.425Z,5.30
2022-12-01T11:11:32.937Z,5.30
2022-12-01T11:14:05.971Z,5.30
2022-12-01T11:16:42.282Z,5.30
2022-12-01T11:19:27.359Z,5.30
2022-12-01T11:21:57.627Z,5.30
2022-12-01T11:24:43.664Z,5.30
2022-12-01T11:27:17.564Z,5.40
2022-12-01T11:29:47.484Z,5.40
2022-12-01T11:32:23.846Z,5.40
2022-12-01T11:34:55.800Z,5.40
2022-12-01T11:37:26.993Z,5.40
2022-12-01T11:39:55.573Z,5.50
2022-12-01T11:42:27.546Z,5.50
2022-12-01T11:44:58.295Z,5.50
2022-12-01T11:47:30.156Z,5.50
2022-12-01T11:49:59.965Z,5.50
2022-12-01T11:52:31.112Z,5.50
2022-12-01T11:57:52.400Z,5.50
2022-12-01T12:00:22.981Z,5.50
2022-12-01T12:03:13.076Z,5.50
2022-12-01T12:05:52.828Z,5.50
2022-12-01T12:08:34.803Z,5.40
2022-12-01T12:11:12.573Z,5.50
2022-12-01T12:14:21.251Z,5.40
2022-12-01T12:17:05.549Z,5.40
2022-12-01T12:20:09.893Z,5.40
2022-12-01T12:22:55.239Z,5.40
2022-12-01T12:25:49.529Z,5.50
2022-12-01T12:28:32.113Z,5.50
2022-12-01T12:31:09.207Z,5.50
2022-12-01T12:34:00.454Z,5.50
2022-12-01T12:36:41.013Z,5.50
2022-12-01T12:39:24.435Z,5.50
2022-12-01T12:41:55.168Z,5.50
2022-12-01T12:44:42.079Z,5.50
2022-12-01T12:47:30.638Z,5.50
2022-12-01T12:50:12.961Z,5.50
2022-12-01T12:52:46.567Z,5.40
2022-12-01T12:55:21.111Z,5.40
2022-12-01T12:57:55.643Z,5.50
2022-12-01T13:00:27.393Z,5.50
2022-12-01T13:02:58.463Z,5.40
2022-12-01T13:05:32.905Z,5.50
2022-12-01T13:08:05.603Z,5.40
2022-12-01T13:10:39.615Z,5.40
2022-12-01T13:13:18.908Z,5.40
2022-12-01T13:15:49.169Z,5.40
2022-12-01T13:18:27.485Z,5.40
2022-12-01T13:20:56.885Z,5.40
2022-12-01T13:23:27.715Z,5.50
2022-12-01T13:25:58.945Z,5.50
2022-12-01T13:28:30.135Z,5.50
2022-12-01T13:31:03.771Z,5.50
2022-12-01T13:33:33.276Z,5.50
2022-12-01T13:36:38.084Z,5.50
2022-12-01T13:38:59.161Z,5.50
2022-12-01T13:41:30.996Z,5.40
2022-12-01T13:44:08.784Z,5.40
2022-12-01T13:46:53.191Z,5.40
2022-12-01T13:49:43.685Z,5.40
2022-12-01T13:52:30.259Z,5.50
2022-12-01T13:55:18.963Z,5.40
2022-12-01T13:57:50.915Z,5.40
2022-12-01T14:00:26.115Z,5.40
2022-12-01T14:03:38.439Z,5.40
2022-12-01T14:06:26.590Z,5.40
2022-12-01T14:08:58.984Z,5.40
2022-12-01T14:11:30.788Z,5.40
2022-12-01T14:14:01.239Z,5.40
2022-12-01T14:16:48.211Z,5.40
2022-12-01T14:19:30.995Z,5.30
2022-12-01T14:21:59.953Z,5.30
2022-12-01T14:24:34.707Z,5.30
2022-12-01T14:27:05.523Z,5.30
2022-12-01T14:29:35.173Z,5.30
2022-12-01T14:32:22.570Z,5.30
2022-12-01T14:35:02.056Z,5.30
2022-12-01T14:37:47.289Z,5.30
2022-12-01T14:40:29.240Z,5.30
2022-12-01T14:43:31.918Z,5.30
2022-12-01T14:46:07.863Z,5.20
2022-12-01T14:48:41.892Z,5.20
2022-12-01T14:51:28.076Z,5.20
2022-12-01T14:53:58.187Z,5.20
2022-12-01T14:56:27.728Z,5.20
2022-12-01T14:58:59.265Z,5.20
2022-12-01T15:01:33.494Z,5.20
2022-12-01T15:04:05.221Z,5.10
2022-12-01T15:06:35.784Z,5.10
2022-12-01T15:12:00.056Z,5.10
2022-12-01T15:14:35.240Z,5.10
2022-12-01T15:17:05.195Z,5.10
2022-12-01T15:19:36.233Z,5.10
2022-12-01T15:22:08.276Z,5.10
2022-12-01T15:24:36.393Z,5.10
2022-12-01T15:27:04.785Z,5.00
2022-12-01T15:29:38.629Z,5.00
2022-12-01T15:32:09.551Z,5.00
2022-12-01T15:34:40.951Z,5.00
2022-12-01T15:37:14.344Z,5.00
2022-12-01T15:39:45.328Z,5.00
2022-12-01T15:42:23.847Z,5.00
2022-12-01T15:45:01.720Z,4.90
2022-12-01T15:47:36.879Z,5.00
2022-12-01T15:50:06.170Z,5.00
2022-12-01T15:52:42.654Z,4.90
2022-12-01T15:55:23.405Z,4.90
2022-12-01T15:57:51.566Z,4.90
2022-12-01T16:00:22.494Z,4.90
2022-12-01T16:02:53.677Z,4.90
2022-12-01T16:05:24.961Z,4.80
2022-12-01T16:10:41.372Z,4.80
2022-12-01T16:13:39.452Z,4.90
2022-12-01T16:16:37.694Z,4.90
2022-12-01T16:19:21.800Z,4.90
2022-12-01T16:21:52.364Z,4.80
2022-12-01T16:24:23.277Z,4.80
2022-12-01T16:26:54.148Z,4.80
2022-12-01T16:29:23.900Z,4.80
2022-12-01T16:34:56.981Z,4.70
2022-12-01T16:37:25.416Z,4.70
2022-12-01T16:39:53.656Z,4.80
2022-12-01T16:42:22.792Z,4.70
2022-12-01T16:44:52.374Z,4.70
2022-12-01T16:47:23.942Z,4.70
2022-12-01T16:49:52.715Z,4.70
2022-12-01T16:55:25.118Z,4.70
2022-12-01T16:57:53.221Z,4.70
2022-12-01T17:00:22.004Z,4.70
2022-12-01T17:02:52.755Z,4.70
2022-12-01T17:05:21.035Z,4.60
2022-12-01T17:07:49.493Z,4.70
2022-12-01T17:10:18.082Z,4.70
2022-12-01T17:12:46.145Z,4.60
2022-12-01T17:15:14.531Z,4.70
2022-12-01T17:17:42.611Z,4.60
2022-12-01T17:20:12.751Z,4.60
2022-12-01T17:22:41.000Z,4.60
2022-12-01T17:25:09.858Z,4.50
2022-12-01T17:27:38.454Z,4.50
2022-12-01T17:30:07.784Z,4.50
2022-12-01T17:32:35.858Z,4.50
2022-12-01T17:35:04.517Z,4.40
2022-12-01T17:37:36.836Z,4.40
2022-12-01T17:40:05.718Z,4.40
2022-12-01T17:42:35.142Z,4.30
2022-12-01T17:45:03.419Z,4.30
2022-12-01T17:47:31.446Z,4.30
2022-12-01T17:49:59.543Z,4.20
2022-12-01T17:52:28.707Z,4.20
2022-12-01T17:54:58.243Z,4.20
2022-12-01T17:57:26.408Z,4.30
2022-12-01T17:59:54.496Z,4.20
2022-12-01T18:02:22.725Z,4.20
2022-12-01T18:04:51.356Z,4.20
2022-12-01T18:07:20.029Z,4.20
2022-12-01T18:09:48.135Z,4.20
2022-12-01T18:12:17.570Z,4.10
2022-12-01T18:14:45.655Z,4.10
2022-12-01T18:17:13.720Z,4.10
2022-12-01T18:19:41.707Z,4.10
2022-12-01T18:22:09.792Z,4.10
2022-12-01T18:24:37.936Z,4.10
2022-12-01T18:27:06.168Z,4.10
2022-12-01T18:29:35.615Z,4.10
2022-12-01T18:32:03.673Z,4.10
2022-12-01T18:34:31.802Z,4.00
2022-12-01T18:37:02.334Z,4.00
2022-12-01T18:39:30.448Z,4.00
2022-12-01T18:41:58.639Z,4.00
2022-12-01T18:44:26.762Z,4.00
2022-12-01T18:46:57.312Z,4.00
2022-12-01T18:49:25.423Z,3.90
2022-12-01T18:51:53.544Z,4.00
2022-12-01T18:54:21.673Z,3.80
2022-12-01T18:56:52.342Z,3.90
2022-12-01T18:59:20.391Z,3.80
2022-12-01T19:01:48.820Z,3.80
2022-12-01T19:04:18.547Z,3.80
2022-12-01T19:06:47.484Z,3.80
2022-12-01T19:09:17.405Z,3.70
2022-12-01T19:11:45.961Z,3.70
2022-12-01T19:14:16.433Z,3.70
2022-12-01T19:16:45.800Z,3.70
2022-12-01T19:19:14.109Z,3.70
2022-12-01T19:21:45.545Z,3.70
2022-12-01T19:24:13.700Z,3.60
2022-12-01T19:26:41.782Z,3.60
2022-12-01T19:29:10.032Z,3.60
2022-12-01T19:31:38.173Z,3.60
2022-12-01T19:34:06.298Z,3.60
2022-12-01T19:36:34.428Z,3.60
2022-12-01T19:39:07.454Z,3.60
2022-12-01T19:41:38.461Z,3.60
2022-12-01T19:44:06.764Z,3.60
2022-12-01T19:46:34.868Z,3.60
2022-12-01T19:49:03.299Z,3.50
2022-12-01T19:51:35.031Z,3.50
2022-12-01T19:54:05.742Z,3.50
2022-12-01T19:56:34.183Z,3.50
2022-12-01T19:59:02.196Z,3.50
2022-12-01T20:01:30.385Z,3.50
2022-12-01T20:03:58.582Z,3.50
2022-12-01T20:06:28.498Z,3.40
2022-12-01T20:08:59.352Z,3.40
2022-12-01T20:11:32.625Z,3.60
2022-12-01T20:14:00.890Z,3.40
2022-12-01T20:16:32.007Z,3.40
2022-12-01T20:19:02.650Z,3.40
2022-12-01T20:21:32.752Z,3.40
2022-12-01T20:24:02.639Z,3.40
2022-12-01T20:26:36.475Z,3.40
2022-12-01T20:29:07.294Z,3.40
2022-12-01T20:31:35.751Z,3.40
2022-12-01T20:34:06.861Z,3.40
2022-12-01T20:36:34.947Z,3.40
2022-12-01T20:39:03.435Z,3.40
2022-12-01T20:41:32.833Z,3.40
2022-12-01T20:44:05.513Z,3.40
2022-12-01T20:46:35.884Z,3.40
2022-12-01T20:49:04.629Z,3.30
2022-12-01T20:51:33.485Z,3.30
2022-12-01T20:54:26.920Z,3.40
2022-12-01T20:56:51.179Z,3.40
2022-12-01T20:59:19.248Z,3.40
2022-12-01T21:01:47.275Z,3.30
2022-12-01T21:04:15.394Z,3.40
2022-12-01T21:06:43.824Z,3.30
2022-12-01T21:09:13.065Z,3.40
2022-12-01T21:12:04.666Z,3.40
2022-12-01T21:14:38.358Z,3.30
2022-12-01T21:17:17.111Z,3.30
2022-12-01T21:19:50.935Z,3.30
2022-12-01T21:22:20.122Z,3.30
2022-12-01T21:24:52.166Z,3.30
2022-12-01T21:27:20.364Z,3.30
2022-12-01T21:29:51.185Z,3.30
2022-12-01T21:32:24.087Z,3.30
2022-12-01T21:34:52.436Z,3.30
2022-12-01T21:37:22.912Z,3.30
2022-12-01T21:39:52.188Z,3.30
2022-12-01T21:42:23.448Z,3.30
2022-12-01T21:44:53.539Z,3.40
2022-12-01T21:47:23.352Z,3.40
2022-12-01T21:49:53.604Z,3.40
2022-12-01T21:52:24.987Z,3.40
2022-12-01T21:54:53.302Z,3.40
2022-12-01T21:57:43.092Z,3.40
2022-12-01T22:00:31.059Z,3.40
2022-12-01T22:03:22.352Z,3.40
2022-12-01T22:06:21.372Z,3.40
2022-12-01T22:08:42.429Z,3.40
2022-12-01T22:11:15.924Z,3.40
2022-12-01T22:13:45.823Z,3.40
2022-12-01T22:16:17.802Z,3.40
2022-12-01T22:18:48.218Z,3.40
2022-12-01T22:21:34.777Z,3.40
2022-12-01T22:24:23.452Z,3.40
2022-12-01T22:26:54.343Z,3.40
2022-12-01T22:29:29.410Z,3.40
2022-12-01T22:32:30.764Z,3.40
2022-12-01T22:35:17.900Z,3.40
2022-12-01T22:37:47.284Z,3.40
2022-12-01T22:40:43.400Z,3.40
2022-12-01T22:43:30.595Z,3.40
2022-12-01T22:46:12.630Z,3.40
2022-12-01T22:48:42.608Z,3.40
2022-12-01T22:51:39.749Z,3.30
2022-12-01T22:54:25.714Z,3.40
2022-12-01T22:57:02.414Z,3.40
2022-12-01T22:59:34.793Z,3.30
2022-12-01T23:02:14.340Z,3.40
2022-12-01T23:04:45.539Z,3.40
2022-12-01T23:07:28.919Z,3.30
2022-12-01T23:10:03.322Z,3.30
2022-12-01T23:12:32.920Z,3.30
2022-12-01T23:15:12.672Z,3.30
2022-12-01T23:17:40.772Z,3.40
2022-12-01T23:20:31.281Z,3.30
2022-12-01T23:23:02.273Z,3.40
2022-12-01T23:25:30.881Z,3.30
2022-12-01T23:28:02.252Z,3.30
2022-12-01T23:30:30.660Z,3.30
2022-12-01T23:33:10.718Z,3.30
2022-12-01T23:35:45.020Z,3.30
2022-12-01T23:38:19.284Z,3.30
2022-12-01T23:40:48.124Z,3.30
2022-12-01T23:43:22.083Z,3.30
2022-12-01T23:45:56.121Z,3.30
2022-12-01T23:48:28.119Z,3.30
2022-12-01T23:50:56.264Z,3.30
2022-12-01T23:53:29.230Z,3.30
2022-12-01T23:56:00.476Z,3.30
2022-12-01T23:58:29.494Z,3.30
